Aérodrome :
LOGIN :

S'inscrire | Disclaimer

   EN    FR    IT 

 










Légende :    VFR   VFR Marginal   IFR   IFR Intensif   IFR Très Intensif
Visi : 
Plafond : 
>= 8 km
>= 3000ft
5 à 8 km
1000 à 3000 ft
1500m à 5 km
500 à 1000 ft
800 à 1500m
200 à 500 ft
< 800m
< 200 ft
Symboles :   Orages  Brouillard  Fortes neiges  Fortes précipitations  Vent > 20 kt
SIGMETs :   Divers  Orages  Givrage  Turbulence  Onde Orograph.  Cendres Volcan.







- Altitude de l'aérodrome : 289 ft


LIRG - Guidonia

DERNIER METAR :
  • 201455Z 13007KT 2000 TSRA BR SCT020CB BKN023 14/13 Q1003

METARs EXPIRÉS :
  • 201404Z 18007KT 3000 TSRA BR SCT020CB BKN025 15/14 Q1002 RMK OVC MON NE INVIS VIS MIN 3000 YLO
  • 201355Z 21006KT 5000 -TSRA FEW020CB BKN025 15/14 Q1002
  • 201255Z 14012KT 9999 -RA SCT027 BKN033 16/13 Q1002

TAF TAF LIRG
Valide du 20 à 15h jusqu'au 21 à 00h UTC


201400Z 2015/2024 19012KT 8000 SCT030 SCT040
TEMPO 2015/2016 4000 TSRA FEW018CB BKN020
Pas de NOTAMs connus pour ce terrain.
3 SIGMETs publiés pour la FIR Roma (LIRR) :
 
Turbulence forte
LIRR SIGMET 12 VALID 201515/201815 LIIB
LIRR ROMA FIR SEV TURB FCST SE OF LINE N4014 E01539 - N3729 E01129 FL240/360 STNR NC=
Orages noyés dans la masse
LIRR SIGMET 11 VALID 201430/201730 LIIB
LIRR ROMA FIR EMBD TS FCST WI N4150 E01014 - N4222 E01006 - N4256 E01005 - N4323 E01001 - N4333 E01024 - N4343 E01104 - N4336 E01216 - N4330 E01316 - N4258 E01301 - N4216 E01337 - N4124 E01426 - N4109 E01406 - N4059 E01341 - N4052 E01201 - N4059 E01056 - N4128 E01030 - N4150 E01014 TOP FL350 MOV NE NC=
Turbulence forte
LIRR SIGMET 10 VALID 201215/201515 LIIB
LIRR ROMA FIR SEV TURB FCST SE OF LINE N3746 E01033 - N4131 E01426 FL240/360 STNR NC=



MET'MAP, la Météo Aéronautique d'un coup d'oeil ! - Copyright ORBIFLY Décembre 2007 - Disclaimer

ORBIFLY MET'MAP TEAM :

Programmation & Développement : Alexandra Zaïnal
Conception & Développement : Baudouin d'Aumeries
Co-Programmation & Développement : Marc-Olivier Méhu
Soutien technique & logistique : Manuel Goepfert

Contact : metmap@orbifly.com




SOURCES & CREDITS :

   NOAA